Time;durP1;ratioP1;P1;durP2;ratioP2;P2;SDS_P1;SDS_P2;PMS_P1;PMS_P2;Temp;Humidity;BMP_temperature;BMP_pressure;BME280_temperature;BME280_humidity;BME280_pressure;Samples;Min_cycle;Max_cycle;Signal;HPM_P1;HPM_P2
2023/07/10 00:01:56;;;;;;;;;3.00;3.00;;;;;23.92;100.00;101840.25;5036489;28;45592;-76
2023/07/10 00:04:22;;;;;;;;;5.00;3.33;;;;;23.90;100.00;101841.22;5036827;28;46392;-77
2023/07/10 00:06:47;;;;;;;;;7.67;4.00;;;;;23.90;100.00;101843.91;5036616;28;66376;-77
2023/07/10 00:09:13;;;;;;;;;3.00;3.00;;;;;23.88;100.00;101840.38;5037112;28;63736;-76
2023/07/10 00:11:38;;;;;;;;;3.00;3.00;;;;;23.85;100.00;101835.94;5038158;28;45170;-80
2023/07/10 00:14:17;;;;;;;;;3.67;3.67;;;;;23.83;100.00;101843.19;5035012;28;45976;-78
2023/07/10 00:16:42;;;;;;;;;5.33;4.00;;;;;23.82;100.00;101851.34;5032470;28;45445;-76
2023/07/10 00:19:11;;;;;;;;;4.00;4.00;;;;;23.79;100.00;101846.91;5037366;28;45429;-79
2023/07/10 00:21:36;;;;;;;;;5.00;4.00;;;;;23.76;100.00;101852.41;5037856;28;45640;-76
2023/07/10 00:24:02;;;;;;;;;6.00;6.00;;;;;23.76;100.00;101853.28;5037481;28;46612;-77
2023/07/10 00:26:27;;;;;;;;;6.00;4.33;;;;;23.73;100.00;101847.97;5037593;28;45961;-77
2023/07/10 00:28:55;;;;;;;;;6.67;4.00;;;;;23.72;100.00;101850.72;5035230;28;62424;-77
2023/07/10 00:31:21;;;;;;;;;5.00;5.00;;;;;23.72;100.00;101850.72;5038028;28;45331;-78
2023/07/10 00:33:47;;;;;;;;;5.00;5.00;;;;;23.72;100.00;101850.72;5052787;28;46197;-76
2023/07/10 00:36:28;;;;;;;;;6.00;4.00;;;;;23.70;100.00;101849.84;5036287;28;45989;-77
2023/07/10 00:38:54;;;;;;;;;9.33;4.67;;;;;23.70;100.00;101853.47;5035295;28;45329;-76
2023/07/10 00:41:24;;;;;;;;;6.00;4.00;;;;;23.65;100.00;101841.00;5037410;28;45504;-79
2023/07/10 00:43:55;;;;;;;;;4.33;4.00;;;;;23.64;100.00;101844.63;5052436;28;46698;-78
2023/07/10 00:46:39;;;;;;;;;3.00;3.00;;;;;23.64;100.00;101855.41;5035577;28;45541;-78
2023/07/10 00:49:07;;;;;;;;;4.00;4.00;;;;;23.62;100.00;101857.25;5038017;28;45281;-78
2023/07/10 00:51:51;;;;;;;;;3.33;3.33;;;;;23.59;100.00;101850.09;5037465;28;45264;-78
2023/07/10 00:54:24;;;;;;;;;4.67;4.67;;;;;23.55;100.00;101853.84;5037479;28;45418;-76
2023/07/10 00:56:51;;;;;;;;;4.00;4.00;;;;;23.52;100.00;101843.13;5033207;28;45714;-77
2023/07/10 00:59:28;;;;;;;;;4.33;4.33;;;;;23.50;100.00;101835.06;5035465;28;60057;-76
2023/07/10 01:02:11;;;;;;;;;4.00;4.00;;;;;23.49;100.00;101840.53;5036076;28;45666;-76
2023/07/10 01:04:39;;;;;;;;;6.67;4.00;;;;;23.46;100.00;101845.97;5035868;28;47399;-77
2023/07/10 01:07:06;;;;;;;;;5.00;5.00;;;;;23.41;100.00;101838.00;5036777;28;45326;-79
2023/07/10 01:09:32;;;;;;;;;7.00;6.00;;;;;23.41;100.00;101838.00;5037267;28;45458;-76
2023/07/10 01:11:57;;;;;;;;;3.67;3.67;;;;;23.38;100.00;101843.47;5033805;28;62102;-77
2023/07/10 01:14:23;;;;;;;;;3.67;3.67;;;;;23.36;100.00;101839.94;5033504;28;70649;-77
2023/07/10 01:16:49;;;;;;;;;5.00;5.00;;;;;23.32;100.00;101837.34;5051483;28;62845;-76
2023/07/10 01:19:17;;;;;;;;;4.00;3.67;;;;;23.29;100.00;101841.03;5035719;28;66822;-77
2023/07/10 01:21:43;;;;;;;;;7.67;5.00;;;;;23.26;100.00;101833.91;5034994;28;45426;-76
2023/07/10 01:24:08;;;;;;;;;5.00;3.00;;;;;23.23;100.00;101842.06;5036098;28;46124;-77
2023/07/10 01:26:35;;;;;;;;;6.00;4.67;;;;;23.18;100.00;101838.63;5034992;28;59609;-76
2023/07/10 01:29:00;;;;;;;;;5.67;4.67;;;;;23.18;100.00;101852.09;5035363;28;45476;-77
2023/07/10 01:31:27;;;;;;;;;5.00;4.00;;;;;23.14;100.00;101846.81;5036675;28;45281;-77
2023/07/10 01:33:55;;;;;;;;;6.67;4.00;;;;;23.12;100.00;101846.84;5034539;28;46857;-78
2023/07/10 01:36:24;;;;;;;;;5.67;4.33;;;;;23.11;100.00;101857.66;5035260;28;45320;-77
2023/07/10 01:39:02;;;;;;;;;4.00;4.00;;;;;23.08;100.00;101846.97;5034783;28;46620;-77
2023/07/10 01:41:39;;;;;;;;;5.00;4.00;;;;;23.06;100.00;101851.47;5036181;28;45407;-78
2023/07/10 01:44:25;;;;;;;;;3.67;3.67;;;;;23.04;100.00;101847.97;5034646;28;46134;-77
2023/07/10 01:46:50;;;;;;;;;4.00;3.00;;;;;23.02;100.00;101847.13;5035806;28;45506;-77
2023/07/10 01:49:18;;;;;;;;;5.00;3.00;;;;;22.98;100.00;101852.56;5036733;28;45358;-77
2023/07/10 01:51:44;;;;;;;;;4.33;4.33;;;;;22.97;100.00;101850.81;5035303;28;45490;-78
2023/07/10 01:54:14;;;;;;;;;5.00;4.00;;;;;22.96;100.00;101846.34;5034995;28;47422;-79
2023/07/10 01:56:40;;;;;;;;;3.33;3.33;;;;;22.95;100.00;101849.06;5035341;28;45573;-78
2023/07/10 01:59:05;;;;;;;;;4.33;4.00;;;;;22.93;100.00;101849.09;5034817;28;48890;-76
2023/07/10 02:01:31;;;;;;;;;4.00;4.00;;;;;22.92;100.00;101846.44;5035462;28;64201;-76
2023/07/10 02:03:56;;;;;;;;;3.67;3.67;;;;;22.90;100.00;101850.97;5035418;28;46127;-77
2023/07/10 02:06:21;;;;;;;;;3.00;3.00;;;;;22.86;100.00;101846.56;5035995;28;52952;-78
2023/07/10 02:08:47;;;;;;;;;5.67;4.00;;;;;22.85;100.00;101852.84;5035140;28;46061;-76
2023/07/10 02:11:13;;;;;;;;;5.00;4.33;;;;;22.83;100.00;101854.72;5035559;28;45496;-77
2023/07/10 02:13:38;;;;;;;;;2.33;2.33;;;;;22.81;100.00;101853.88;5034981;28;47640;-77
2023/07/10 02:16:04;;;;;;;;;2.00;2.00;;;;;22.78;100.00;101854.81;5035260;28;53432;-77
2023/07/10 02:18:30;;;;;;;;;3.00;3.00;;;;;22.76;100.00;101859.34;5035214;28;45398;-80
2023/07/10 02:20:55;;;;;;;;;3.00;3.00;;;;;22.72;100.00;101855.84;5034485;28;45414;-78
2023/07/10 02:23:21;;;;;;;;;3.33;3.33;;;;;22.68;100.00;101856.81;5034336;28;69207;-76
2023/07/10 02:25:46;;;;;;;;;4.00;4.00;;;;;22.65;100.00;101858.72;5035267;28;45355;-76
2023/07/10 02:28:12;;;;;;;;;6.67;3.00;;;;;22.63;100.00;101855.16;5034851;28;56957;-77
2023/07/10 02:30:40;;;;;;;;;2.33;2.33;;;;;22.62;100.00;101853.41;5035064;28;66488;-76
2023/07/10 02:33:06;;;;;;;;;3.33;3.33;;;;;22.56;100.00;101854.41;5035602;28;47516;-76
2023/07/10 02:35:31;;;;;;;;;4.67;2.33;;;;;22.55;100.00;101860.72;5035028;28;45504;-79
2023/07/10 02:37:56;;;;;;;;;4.00;4.00;;;;;22.53;100.00;101865.28;5033907;28;65304;-79
2023/07/10 02:40:22;;;;;;;;;3.00;3.00;;;;;22.49;100.00;101863.56;5034496;28;63100;-77
2023/07/10 02:42:47;;;;;;;;;2.33;2.33;;;;;22.46;100.00;101866.31;5030527;28;70126;-76
2023/07/10 02:45:13;;;;;;;;;3.00;3.00;;;;;22.43;100.00;101869.09;5033247;28;67812;-77
2023/07/10 02:47:39;;;;;;;;;3.33;2.33;;;;;22.41;100.00;101868.22;5035021;28;45577;-77
2023/07/10 02:50:05;;;;;;;;;4.00;4.00;;;;;22.39;100.00;101862.88;5035399;28;45332;-77
2023/07/10 02:52:30;;;;;;;;;5.33;3.33;;;;;22.37;100.00;101870.09;5035445;28;47228;-77
2023/07/10 02:54:55;;;;;;;;;6.33;4.00;;;;;22.33;100.00;101871.09;5034378;28;69010;-78
2023/07/10 02:57:20;;;;;;;;;4.00;4.00;;;;;22.30;100.00;101868.44;5034261;28;64808;-77
2023/07/10 02:59:46;;;;;;;;;3.67;3.67;;;;;22.28;100.00;101875.66;5034052;28;57692;-79
2023/07/10 03:02:11;;;;;;;;;2.67;2.67;;;;;22.27;100.00;101875.72;5035284;28;46657;-80
2023/07/10 03:04:37;;;;;;;;;4.00;4.00;;;;;22.25;100.00;101878.41;5035295;28;45414;-77
2023/07/10 03:07:03;;;;;;;;;5.00;3.00;;;;;22.25;100.00;101880.22;5035035;28;45490;-77
2023/07/10 03:09:28;;;;;;;;;5.00;3.67;;;;;22.24;100.00;101882.03;5035416;28;45470;-79
2023/07/10 03:11:53;;;;;;;;;5.00;3.67;;;;;22.22;100.00;101876.69;5034167;28;64602;-79
2023/07/10 03:14:18;;;;;;;;;4.67;4.00;;;;;22.21;100.00;101884.78;5034905;28;69651;-78
2023/07/10 03:16:44;;;;;;;;;4.33;3.00;;;;;22.21;100.00;101883.00;5034332;28;63052;-77
2023/07/10 03:19:09;;;;;;;;;3.67;3.00;;;;;22.20;100.00;101885.69;5033737;28;64323;-78
2023/07/10 03:21:34;;;;;;;;;3.00;3.00;;;;;22.20;100.00;101880.31;5034441;28;68452;-76
2023/07/10 03:24:00;;;;;;;;;3.33;3.33;;;;;22.21;100.00;101877.63;5034034;28;67020;-80
2023/07/10 03:26:25;;;;;;;;;3.33;3.33;;;;;22.23;100.00;101883.84;5035266;28;45517;-79
2023/07/10 03:29:10;;;;;;;;;4.67;3.67;;;;;22.21;100.00;101890.16;5035530;28;45268;-77
2023/07/10 03:31:35;;;;;;;;;8.33;4.00;;;;;22.19;100.00;101879.44;5027017;28;48012;-77
2023/07/10 03:34:01;;;;;;;;;4.67;4.67;;;;;22.20;100.00;101885.69;5034163;28;64386;-77
2023/07/10 03:36:26;;;;;;;;;4.00;3.67;;;;;22.18;100.00;101891.13;5034189;28;57337;-76
2023/07/10 03:38:51;;;;;;;;;4.00;3.00;;;;;22.18;100.00;101890.22;5034442;28;45455;-77
2023/07/10 03:41:17;;;;;;;;;5.00;4.33;;;;;22.17;100.00;101888.47;5033931;28;73100;-79
2023/07/10 03:43:42;;;;;;;;;6.00;5.00;;;;;22.18;100.00;101893.81;5029326;28;66925;-77
2023/07/10 03:46:07;;;;;;;;;5.33;4.00;;;;;22.18;100.00;101892.91;5034133;28;63564;-78
2023/07/10 03:48:33;;;;;;;;;5.33;4.33;;;;;22.16;100.00;101898.34;5036858;28;62008;-79
2023/07/10 03:50:58;;;;;;;;;5.33;5.33;;;;;22.15;100.00;101906.41;5037428;28;67572;-76
2023/07/10 03:53:23;;;;;;;;;5.67;4.00;;;;;22.14;100.00;101910.03;5037486;28;65769;-77
2023/07/10 03:55:53;;;;;;;;;4.33;4.00;;;;;22.11;100.00;101902.03;5036855;28;54273;-78
2023/07/10 03:58:33;;;;;;;;;5.33;4.00;;;;;22.05;100.00;101908.41;5038106;28;45426;-78
2023/07/10 04:01:01;;;;;;;;;3.00;3.00;;;;;22.04;100.00;101903.91;5037493;28;47049;-79
2023/07/10 04:03:29;;;;;;;;;4.33;4.33;;;;;22.01;100.00;101909.38;5037552;28;45243;-78
2023/07/10 04:05:57;;;;;;;;;4.00;4.00;;;;;22.00;100.00;101904.00;5038300;28;45447;-77
2023/07/10 04:08:27;;;;;;;;;5.33;4.00;;;;;21.97;100.00;101903.16;5052257;28;45277;-79
2023/07/10 04:10:54;;;;;;;;;4.00;4.00;;;;;21.97;100.00;101908.53;5038107;28;47472;-77
2023/07/10 04:13:19;;;;;;;;;4.00;4.00;;;;;21.91;100.00;101903.28;5036368;28;45482;-76
2023/07/10 04:16:05;;;;;;;;;4.00;4.00;;;;;21.93;100.00;101909.50;5038483;28;45293;-77
2023/07/10 04:18:33;;;;;;;;;3.33;3.33;;;;;21.94;100.00;101919.34;5036773;28;46902;-77
2023/07/10 04:21:00;;;;;;;;;5.00;5.00;;;;;21.93;100.00;101922.06;5037893;28;47048;-76
2023/07/10 04:23:25;;;;;;;;;3.67;3.67;;;;;21.92;100.00;101923.84;5037436;28;45306;-76
2023/07/10 04:25:51;;;;;;;;;3.00;3.00;;;;;21.91;100.00;101930.16;5038275;28;45454;-79
2023/07/10 04:28:16;;;;;;;;;5.67;4.00;;;;;21.89;100.00;101928.41;5037339;28;45539;-79
2023/07/10 04:30:41;;;;;;;;;6.00;3.67;;;;;21.89;100.00;101931.09;5037318;28;55986;-78
2023/07/10 04:33:10;;;;;;;;;3.67;3.67;;;;;21.89;100.00;101937.38;5036623;28;67984;-77
2023/07/10 04:35:35;;;;;;;;;3.67;3.67;;;;;21.89;100.00;101937.38;5037609;28;45277;-78
2023/07/10 04:38:01;;;;;;;;;4.33;4.33;;;;;21.88;100.00;101930.19;5036969;28;63881;-78
2023/07/10 04:40:26;;;;;;;;;7.33;3.00;;;;;21.87;100.00;101933.81;5037059;28;46787;-78
2023/07/10 04:42:53;;;;;;;;;4.00;2.00;;;;;21.89;100.00;101942.75;5036258;28;68013;-76
2023/07/10 04:45:18;;;;;;;;;5.33;4.67;;;;;21.90;100.00;101943.66;5037528;28;45411;-77
2023/07/10 04:47:44;;;;;;;;;5.00;3.00;;;;;21.90;100.00;101947.22;5037176;28;45522;-79
2023/07/10 04:50:09;;;;;;;;;5.00;5.00;;;;;21.89;100.00;101948.13;5036409;28;67541;-76
2023/07/10 04:52:34;;;;;;;;;5.33;4.00;;;;;21.90;100.00;101952.59;5037028;28;45343;-75
2023/07/10 04:55:00;;;;;;;;;4.00;4.00;;;;;21.90;100.00;101949.03;5036094;28;63409;-77
2023/07/10 04:57:25;;;;;;;;;6.00;3.67;;;;;21.88;100.00;101948.13;5037249;28;45407;-79
2023/07/10 04:59:50;;;;;;;;;4.00;2.00;;;;;21.91;100.00;101950.78;5036390;28;47539;-79
2023/07/10 05:02:16;;;;;;;;;4.33;3.33;;;;;21.91;100.00;101948.97;5036559;28;55356;-75
2023/07/10 05:04:41;;;;;;;;;7.67;3.67;;;;;21.94;100.00;101954.31;5037305;28;55592;-79
2023/07/10 05:07:06;;;;;;;;;6.00;4.00;;;;;21.96;100.00;101949.78;5035582;28;61432;-77
2023/07/10 05:09:32;;;;;;;;;4.00;3.67;;;;;21.96;100.00;101949.78;5036336;28;56292;-79
2023/07/10 05:11:58;;;;;;;;;7.33;3.00;;;;;21.98;100.00;101949.75;5034613;28;64358;-78
2023/07/10 05:14:24;;;;;;;;;5.00;3.00;;;;;21.99;100.00;101956.91;5135763;22;45415;-77
2023/07/10 05:16:49;;;;;;;;;2.67;2.67;;;;;22.03;100.00;101950.56;5015153;28;45546;-78
2023/07/10 05:19:15;;;;;;;;;2.00;2.00;;;;;22.07;100.00;101954.97;5016493;28;46160;-78
2023/07/10 05:21:40;;;;;;;;;4.33;3.00;;;;;22.09;100.00;101957.63;5015805;28;66287;-78
2023/07/10 05:24:05;;;;;;;;;3.33;3.33;;;;;22.11;100.00;101951.34;5017138;28;45344;-77
2023/07/10 05:26:31;;;;;;;;;5.00;3.00;;;;;22.12;100.00;101950.41;5016154;28;48896;-79
2023/07/10 05:28:56;;;;;;;;;4.00;2.67;;;;;22.15;100.00;101952.16;5015638;28;46842;-78
2023/07/10 05:31:22;;;;;;;;;3.00;3.00;;;;;22.19;100.00;101953.88;5016923;28;45346;-77
2023/07/10 05:33:49;;;;;;;;;3.00;3.00;;;;;22.19;100.00;101943.13;5017214;28;45464;-78
2023/07/10 05:36:16;;;;;;;;;4.00;4.00;;;;;22.22;100.00;101943.94;5016728;28;45422;-77
2023/07/10 05:38:42;;;;;;;;;3.33;2.33;;;;;22.24;100.00;101949.28;5016406;28;47538;-80
2023/07/10 05:41:08;;;;;;;;;5.00;3.00;;;;;22.22;100.00;101946.63;5016496;28;45603;-79
2023/07/10 05:43:34;;;;;;;;;4.00;3.00;;;;;22.23;100.00;101943.03;5016004;28;45510;-78
2023/07/10 05:46:00;;;;;;;;;2.00;2.00;;;;;22.23;100.00;101955.59;5016915;28;45534;-78
2023/07/10 05:48:26;;;;;;;;;2.00;2.00;;;;;22.21;100.00;101950.25;5014727;28;45400;-77
2023/07/10 05:50:53;;;;;;;;;2.00;2.00;;;;;22.23;100.00;101947.53;5013616;28;45299;-79
2023/07/10 05:53:18;;;;;;;;;4.00;3.00;;;;;22.23;100.00;101944.84;5014578;28;45329;-79
2023/07/10 05:55:45;;;;;;;;;5.33;4.00;;;;;22.21;100.00;101949.34;5016935;28;45247;-77
2023/07/10 05:58:11;;;;;;;;;4.00;2.33;;;;;22.20;100.00;101943.06;5016199;28;47472;-77
2023/07/10 06:00:36;;;;;;;;;3.00;3.00;;;;;22.21;100.00;101947.56;5015839;28;45412;-77
2023/07/10 06:03:02;;;;;;;;;4.00;2.33;;;;;22.18;100.00;101950.31;5014914;28;66773;-77
2023/07/10 06:05:27;;;;;;;;;7.00;2.00;;;;;22.18;100.00;101955.69;5012649;28;52407;-77
2023/07/10 06:07:52;;;;;;;;;4.00;4.00;;;;;22.18;100.00;101944.03;5014465;28;69327;-77
2023/07/10 06:10:18;;;;;;;;;6.00;2.67;;;;;22.18;100.00;101952.09;5015720;28;45378;-76
2023/07/10 06:12:43;;;;;;;;;3.67;3.00;;;;;22.18;100.00;101946.72;5016217;28;45447;-76
2023/07/10 06:15:09;;;;;;;;;4.00;3.00;;;;;22.19;100.00;101952.06;5009682;28;46266;-79
2023/07/10 06:17:34;;;;;;;;;4.00;3.00;;;;;22.23;100.00;101952.91;5013405;28;47966;-77
2023/07/10 06:20:00;;;;;;;;;5.33;3.00;;;;;22.26;100.00;101943.88;5013689;28;68664;-79
2023/07/10 06:22:25;;;;;;;;;4.67;3.00;;;;;22.31;100.00;101955.44;5012163;28;63792;-79
2023/07/10 06:24:51;;;;;;;;;2.33;2.33;;;;;22.34;100.00;101955.38;5013489;28;45522;-79
2023/07/10 06:27:16;;;;;;;;;3.00;3.00;;;;;22.38;100.00;101949.91;5011733;28;69751;-77
2023/07/10 06:29:41;;;;;;;;;6.00;3.00;;;;;22.38;100.00;101947.22;5011206;28;45506;-76
2023/07/10 06:32:07;;;;;;;;;5.67;3.00;;;;;22.41;100.00;101949.84;5015751;28;45352;-76
2023/07/10 06:34:33;;;;;;;;;2.00;2.00;;;;;22.44;100.00;101955.16;5015187;28;45476;-78
2023/07/10 06:36:58;;;;;;;;;7.00;3.00;;;;;22.45;100.00;101951.56;5010925;28;46416;-77
2023/07/10 06:39:26;;;;;;;;;3.00;3.00;;;;;22.48;100.00;101942.53;5013053;28;45439;-75
2023/07/10 06:41:51;;;;;;;;;2.33;2.33;;;;;22.54;100.00;101950.50;5013119;28;45416;-77
2023/07/10 06:44:17;;;;;;;;;3.67;3.67;;;;;22.55;100.00;101938.78;5012329;28;60726;-78
2023/07/10 06:46:42;;;;;;;;;3.33;2.67;;;;;22.57;100.00;101941.44;5007154;28;58043;-76
2023/07/10 06:49:07;;;;;;;;;2.67;2.00;;;;;22.56;100.00;101947.75;5014527;28;47133;-75
2023/07/10 06:51:35;;;;;;;;;3.00;3.00;;;;;22.53;100.00;101946.03;5012540;28;62463;-76
2023/07/10 06:54:02;;;;;;;;;3.00;3.00;;;;;22.52;100.00;101943.34;5012306;28;45553;-77
2023/07/10 06:56:27;;;;;;;;;3.33;3.00;;;;;22.50;100.00;101940.69;5010719;28;47854;-81
2023/07/10 06:58:52;;;;;;;;;4.00;2.33;;;;;22.51;100.00;101945.16;5011600;28;65340;-79
2023/07/10 07:01:18;;;;;;;;;7.67;2.00;;;;;22.49;100.00;101942.50;5013050;28;63217;-77
2023/07/10 07:03:43;;;;;;;;;3.00;2.33;;;;;22.51;100.00;101939.78;5013605;28;54357;-79
2023/07/10 07:06:08;;;;;;;;;3.33;3.00;;;;;22.52;100.00;101943.34;5009386;28;68352;-79
2023/07/10 07:08:34;;;;;;;;;3.00;3.00;;;;;22.55;100.00;101946.88;5012529;28;64130;-78
2023/07/10 07:10:59;;;;;;;;;5.67;2.67;;;;;22.58;100.00;101953.97;5013469;28;45870;-78
2023/07/10 07:13:25;;;;;;;;;4.00;3.00;;;;;22.60;100.00;101946.78;5020995;28;45419;-77
2023/07/10 07:15:51;;;;;;;;;3.33;3.33;;;;;22.63;100.00;101936.81;5011330;28;46613;-77
2023/07/10 07:18:16;;;;;;;;;4.67;3.00;;;;;22.70;100.00;101938.47;5012610;28;45456;-78
2023/07/10 07:20:42;;;;;;;;;5.00;4.00;;;;;22.73;100.00;101933.00;5013665;28;64826;-79
2023/07/10 07:23:07;;;;;;;;;5.67;3.33;;;;;22.79;100.00;101937.38;5014279;28;62293;-80
2023/07/10 07:25:32;;;;;;;;;6.00;2.00;;;;;22.83;100.00;101930.13;5013621;28;70980;-79
2023/07/10 07:27:59;;;;;;;;;2.33;2.33;;;;;22.86;100.00;101933.63;5015962;28;64854;-81
2023/07/10 07:30:28;;;;;;;;;3.00;3.00;;;;;22.91;100.00;101931.75;5016493;28;45444;-78
2023/07/10 07:32:53;;;;;;;;;4.33;3.00;;;;;22.92;100.00;101933.53;5015629;28;45563;-82
2023/07/10 07:35:18;;;;;;;;;5.00;3.00;;;;;22.97;100.00;101936.13;5016022;28;47173;-80
2023/07/10 07:37:44;;;;;;;;;5.00;4.00;;;;;22.98;100.00;101930.69;5016663;28;45955;-82
2023/07/10 07:40:10;;;;;;;;;4.67;2.00;;;;;23.04;100.00;101940.44;5015217;28;64847;-81
2023/07/10 07:42:35;;;;;;;;;5.00;3.00;;;;;23.06;100.00;101937.69;5016954;28;45286;-81
2023/07/10 07:45:02;;;;;;;;;3.33;3.33;;;;;23.14;100.00;101941.09;5015556;28;47212;-80
2023/07/10 07:47:28;;;;;;;;;2.67;2.67;;;;;23.19;100.00;101932.00;5015796;28;45464;-82
2023/07/10 07:49:54;;;;;;;;;4.00;3.00;;;;;23.25;100.00;101928.25;5015933;28;45488;-81
2023/07/10 07:52:19;;;;;;;;;4.33;4.00;;;;;23.27;100.00;101924.59;5008117;28;45608;-80
2023/07/10 07:54:45;;;;;;;;;4.00;3.00;;;;;23.34;100.00;101921.78;5015255;28;71143;-81
2023/07/10 07:57:11;;;;;;;;;3.67;2.00;;;;;23.36;100.00;101915.41;5017608;28;45513;-83
2023/07/10 07:59:36;;;;;;;;;3.00;3.00;;;;;23.45;100.00;101925.09;5015742;28;61988;-81
2023/07/10 08:02:01;;;;;;;;;4.67;2.33;;;;;23.49;100.00;101914.19;5017026;28;63160;-81
2023/07/10 08:04:27;;;;;;;;;6.00;2.33;;;;;23.53;100.00;101910.47;5016542;28;69858;-80
2023/07/10 08:06:52;;;;;;;;;3.00;3.00;;;;;23.58;100.00;101912.16;5016166;28;63961;-81
2023/07/10 08:09:18;;;;;;;;;2.33;2.33;;;;;23.63;100.00;101919.25;5017023;28;45411;-79
2023/07/10 08:11:43;;;;;;;;;2.00;2.00;;;;;23.70;100.00;101910.09;4998243;28;62366;-81
2023/07/10 08:14:09;;;;;;;;;4.00;2.00;;;;;23.75;100.00;101910.81;5017247;28;46731;-80
2023/07/10 08:16:35;;;;;;;;;3.67;2.00;;;;;23.79;100.00;101900.84;5016232;28;45479;-79
2023/07/10 08:19:00;;;;;;;;;4.00;2.00;;;;;23.87;100.00;101908.75;5016540;28;45368;-78
2023/07/10 08:21:25;;;;;;;;;2.00;1.00;;;;;23.94;100.00;101907.66;5016681;28;45518;-80
2023/07/10 08:23:51;;;;;;;;;4.00;1.00;;;;;23.99;100.00;101908.41;5015572;28;67911;-80
2023/07/10 08:26:16;;;;;;;;;1.00;1.00;;;;;24.09;100.00;101909.03;5014852;28;71478;-79
2023/07/10 08:28:41;;;;;;;;;2.00;2.00;;;;;24.12;100.00;101901.72;5015044;28;61025;-82
2023/07/10 08:31:07;;;;;;;;;1.33;1.33;;;;;24.17;100.00;101898.91;5015691;28;45549;-78
2023/07/10 08:33:32;;;;;;;;;2.00;2.00;;;;;24.21;100.00;101898.75;5015246;28;46096;-79
2023/07/10 08:36:03;;;;;;;;;5.67;2.00;;;;;24.21;100.00;101892.50;5023507;28;46229;-79
2023/07/10 08:38:30;;;;;;;;;3.00;1.67;;;;;24.27;100.00;101901.28;5009399;28;45380;-80
2023/07/10 08:41:00;;;;;;;;;2.33;1.67;;;;;24.35;100.00;101911.00;5016478;28;46045;-79
2023/07/10 08:43:31;;;;;;;;;2.00;2.00;;;;;24.39;100.00;101901.88;5014775;28;46813;-77
2023/07/10 08:46:16;;;;;;;;;2.00;1.33;;;;;24.45;100.00;101908.00;5006717;28;46281;-79
2023/07/10 08:48:59;;;;;;;;;2.33;1.33;;;;;24.49;100.00;101903.38;5028067;28;45476;-79
2023/07/10 08:51:42;;;;;;;;;1.67;1.00;;;;;24.55;100.00;101903.19;5016615;28;45556;-78
2023/07/10 08:54:13;;;;;;;;;1.00;1.00;;;;;24.56;100.00;101900.47;5013254;28;45792;-78
2023/07/10 08:56:42;;;;;;;;;2.00;2.00;;;;;24.61;100.00;101902.13;5015659;28;45582;-76
2023/07/10 08:59:34;;;;;;;;;2.00;1.00;;;;;24.62;100.00;101903.91;5008684;28;45874;-77
2023/07/10 09:02:00;;;;;;;;;1.00;1.00;;;;;24.62;100.00;101901.22;5002671;28;45516;-77
2023/07/10 09:04:26;;;;;;;;;2.67;1.00;;;;;24.65;100.00;101899.28;5004522;28;46211;-77
2023/07/10 09:06:56;;;;;;;;;1.00;1.00;;;;;24.68;100.00;101895.63;5012850;28;45446;-78
2023/07/10 09:09:31;;;;;;;;;1.00;1.00;;;;;24.70;100.00;101896.44;5015127;28;46807;-77
2023/07/10 09:12:00;;;;;;;;;1.00;1.00;;;;;24.72;100.00;101898.19;5015704;28;45733;-79
2023/07/10 09:14:44;;;;;;;;;2.67;1.00;;;;;24.75;100.00;101900.78;5011332;28;47122;-78
2023/07/10 09:17:41;;;;;;;;;2.00;2.00;;;;;24.77;100.00;101904.34;5014496;28;45505;-78
2023/07/10 09:20:20;;;;;;;;;1.33;1.00;;;;;24.81;100.00;101894.28;5014445;28;45428;-78
2023/07/10 09:22:50;;;;;;;;;2.00;2.00;;;;;24.82;100.00;101896.06;5015433;28;45473;-75
2023/07/10 09:25:16;;;;;;;;;1.00;1.00;;;;;24.85;100.00;101897.78;5016072;28;46577;-77
2023/07/10 09:27:43;;;;;;;;;1.00;1.00;;;;;24.89;100.00;101896.78;5016048;28;45435;-77
2023/07/10 09:30:28;;;;;;;;;2.67;1.00;;;;;24.93;100.00;101902.03;5015654;28;45534;-77
2023/07/10 09:33:05;;;;;;;;;2.33;1.00;;;;;24.97;100.00;101892.88;5012724;28;45543;-78
2023/07/10 09:35:31;;;;;;;;;0.67;0.00;;;;;25.02;100.00;101896.31;5008681;28;47529;-78
2023/07/10 09:37:57;;;;;;;;;1.00;1.00;;;;;25.06;100.00;101891.75;5012643;28;45819;-81
2023/07/10 09:40:54;;;;;;;;;1.00;1.00;;;;;25.10;100.00;101892.53;5010343;28;45996;-82
2023/07/10 09:43:22;;;;;;;;;1.00;1.00;;;;;25.13;100.00;101885.19;5006517;28;46605;-78
2023/07/10 09:45:52;;;;;;;;;1.00;1.00;;;;;25.19;100.00;101894.91;5010842;28;46520;-78
2023/07/10 09:48:25;;;;;;;;;3.33;2.00;;;;;25.24;100.00;101895.66;5024743;28;46629;-79
2023/07/10 09:50:52;;;;;;;;;1.00;1.00;;;;;25.28;100.00;101892.78;5012330;28;45523;-78
2023/07/10 09:53:28;;;;;;;;;3.00;1.00;;;;;25.34;100.00;101887.19;5011416;28;45469;-79
2023/07/10 09:55:53;;;;;;;;;1.00;1.00;;;;;25.36;99.92;101884.44;5012177;28;45694;-77
2023/07/10 09:58:18;;;;;;;;;3.33;1.33;;;;;25.42;98.60;101884.22;5012444;28;45652;-76
2023/07/10 10:00:45;;;;;;;;;1.67;1.00;;;;;25.45;98.34;101881.41;5012861;28;45613;-76
2023/07/10 10:03:17;;;;;;;;;1.00;1.00;;;;;25.54;97.16;101891.03;5014811;28;45444;-77
2023/07/10 10:05:51;;;;;;;;;2.67;1.00;;;;;25.60;96.42;101893.53;5013934;28;46504;-79
2023/07/10 10:08:31;;;;;;;;;2.00;0.33;;;;;25.66;95.90;101878.91;5012633;28;45557;-76
2023/07/10 10:11:09;;;;;;;;;2.00;1.00;;;;;25.74;96.30;101884.94;5013837;28;45435;-77
2023/07/10 10:13:58;;;;;;;;;2.67;1.00;;;;;25.78;93.11;101878.47;5013034;28;45646;-79
2023/07/10 10:16:31;;;;;;;;;1.00;1.00;;;;;25.85;93.70;101885.47;5011603;28;46460;-78
2023/07/10 10:19:18;;;;;;;;;0.00;0.00;;;;;25.89;94.23;101876.31;5013839;28;45991;-79
2023/07/10 10:21:43;;;;;;;;;0.00;0.00;;;;;25.97;93.21;101879.59;5010011;28;45473;-83
2023/07/10 10:24:10;;;;;;;;;0.67;0.67;;;;;26.03;92.70;101884.78;5012443;28;45524;-77
2023/07/10 10:26:54;;;;;;;;;1.00;1.00;;;;;26.12;92.83;101892.56;5012036;28;46811;-76
2023/07/10 10:29:44;;;;;;;;;1.00;1.00;;;;;26.19;91.76;101873.38;5010327;28;45380;-76
2023/07/10 10:32:28;;;;;;;;;3.33;0.67;;;;;26.27;91.38;101874.88;5008510;28;45534;-73
2023/07/10 10:35:07;;;;;;;;;2.00;0.00;;;;;26.34;91.57;101872.81;5009646;28;45447;-80
2023/07/10 10:38:00;;;;;;;;;1.00;1.00;;;;;26.42;89.90;101870.75;5012820;28;47540;-78
2023/07/10 10:40:37;;;;;;;;;0.67;0.67;;;;;26.50;91.15;101873.13;5013605;28;45431;-75
2023/07/10 10:43:18;;;;;;;;;1.00;1.00;;;;;26.57;91.16;101880.94;5013903;28;45448;-76
2023/07/10 10:45:50;;;;;;;;;1.00;1.00;;;;;26.65;90.93;101872.53;5011839;28;45442;-77
2023/07/10 10:48:33;;;;;;;;;1.00;1.00;;;;;26.76;88.19;101861.28;5009405;28;46864;-78
2023/07/10 10:51:01;;;;;;;;;0.67;0.67;;;;;26.82;88.52;101863.72;5009877;28;45551;-78
2023/07/10 10:54:00;;;;;;;;;1.00;1.00;;;;;26.89;87.99;101865.22;5013230;28;45423;-77
2023/07/10 10:56:32;;;;;;;;;1.00;1.00;;;;;26.98;88.48;101864.00;5026373;28;45582;-79
2023/07/10 10:59:28;;;;;;;;;1.67;1.33;;;;;27.06;87.88;101861.81;5015551;28;47319;-77
2023/07/10 11:02:09;;;;;;;;;2.00;0.33;;;;;27.14;85.89;101870.56;5016291;28;45419;-77
2023/07/10 11:04:38;;;;;;;;;0.00;0.00;;;;;27.19;83.81;101871.25;5016453;28;45526;-76
2023/07/10 11:07:19;;;;;;;;;0.00;0.00;;;;;27.29;82.71;101861.78;5016808;28;45496;-78
2023/07/10 11:09:49;;;;;;;;;2.67;2.33;;;;;27.36;84.05;101856.97;5010768;28;48096;-77
2023/07/10 11:12:17;;;;;;;;;1.00;1.00;;;;;27.45;82.13;101853.88;5015273;28;45744;-77
2023/07/10 11:14:44;;;;;;;;;1.00;1.00;;;;;27.51;81.14;101847.31;5012870;28;45502;-77
2023/07/10 11:17:11;;;;;;;;;1.00;1.00;;;;;27.62;81.97;101851.31;5016944;28;46236;-78
2023/07/10 11:19:36;;;;;;;;;3.00;1.00;;;;;27.72;82.03;101853.66;5015707;28;46873;-77
2023/07/10 11:22:28;;;;;;;;;2.00;0.00;;;;;27.81;81.18;101835.13;5017801;28;52431;-77
2023/07/10 11:24:55;;;;;;;;;1.00;1.00;;;;;27.86;82.48;101834.94;5014619;28;45417;-77
2023/07/10 11:27:30;;;;;;;;;1.00;1.00;;;;;27.97;82.77;101829.88;5017757;28;45495;-77